sensor_id;sensor_type;location;lat;lon;timestamp;pressure;altitude;pressure_sealevel;temperature;humidity
77799;BME280;66989;50.426;15.352;2023-07-08T00:02:23;98774.41;;;17.81;63.47
77799;BME280;66989;50.426;15.352;2023-07-08T00:04:48;98778.06;;;17.80;63.36
77799;BME280;66989;50.426;15.352;2023-07-08T00:07:17;98767.84;;;17.75;64.10
77799;BME280;66989;50.426;15.352;2023-07-08T00:09:44;98774.59;;;17.70;64.77
77799;BME280;66989;50.426;15.352;2023-07-08T00:12:11;98780.66;;;17.62;64.95
77799;BME280;66989;50.426;15.352;2023-07-08T00:14:36;98779.72;;;17.53;65.02
77799;BME280;66989;50.426;15.352;2023-07-08T00:17:02;98786.06;;;17.43;65.26
77799;BME280;66989;50.426;15.352;2023-07-08T00:19:27;98791.28;;;17.34;65.56
77799;BME280;66989;50.426;15.352;2023-07-08T00:21:52;98791.03;;;17.28;66.07
77799;BME280;66989;50.426;15.352;2023-07-08T00:24:18;98787.13;;;17.22;66.18
77799;BME280;66989;50.426;15.352;2023-07-08T00:26:43;98778.13;;;17.23;65.35
77799;BME280;66989;50.426;15.352;2023-07-08T00:29:09;98779.81;;;17.24;64.91
77799;BME280;66989;50.426;15.352;2023-07-08T00:31:35;98781.22;;;17.28;64.49
77799;BME280;66989;50.426;15.352;2023-07-08T00:34:00;98780.09;;;17.31;64.51
77799;BME280;66989;50.426;15.352;2023-07-08T00:36:28;98779.25;;;17.30;64.98
77799;BME280;66989;50.426;15.352;2023-07-08T00:38:55;98782.34;;;17.26;65.08
77799;BME280;66989;50.426;15.352;2023-07-08T00:41:27;98782.94;;;17.20;65.66
77799;BME280;66989;50.426;15.352;2023-07-08T00:43:57;98780.69;;;17.15;65.86
77799;BME280;66989;50.426;15.352;2023-07-08T00:51:38;98791.78;;;17.10;66.28
77799;BME280;66989;50.426;15.352;2023-07-08T00:54:05;98787.72;;;17.06;66.45
77799;BME280;66989;50.426;15.352;2023-07-08T00:56:40;98790.81;;;17.02;66.87
77799;BME280;66989;50.426;15.352;2023-07-08T00:59:12;98791.09;;;16.99;66.75
77799;BME280;66989;50.426;15.352;2023-07-08T01:01:41;98786.75;;;16.98;65.99
77799;BME280;66989;50.426;15.352;2023-07-08T01:04:11;98779.75;;;16.97;66.60
77799;BME280;66989;50.426;15.352;2023-07-08T01:06:41;98781.16;;;16.91;67.01
77799;BME280;66989;50.426;15.352;2023-07-08T01:09:11;98787.06;;;16.85;67.85
77799;BME280;66989;50.426;15.352;2023-07-08T01:11:39;98784.00;;;16.80;68.18
77799;BME280;66989;50.426;15.352;2023-07-08T01:14:07;98788.06;;;16.74;68.38
77799;BME280;66989;50.426;15.352;2023-07-08T01:16:33;98787.66;;;16.69;68.39
77799;BME280;66989;50.426;15.352;2023-07-08T01:19:00;98784.44;;;16.66;68.73
77799;BME280;66989;50.426;15.352;2023-07-08T01:21:37;98781.34;;;16.61;69.37
77799;BME280;66989;50.426;15.352;2023-07-08T01:24:08;98784.72;;;16.53;70.13
77799;BME280;66989;50.426;15.352;2023-07-08T01:26:38;98776.31;;;16.48;69.94
77799;BME280;66989;50.426;15.352;2023-07-08T01:29:04;98770.53;;;16.43;70.28
77799;BME280;66989;50.426;15.352;2023-07-08T01:31:32;98773.47;;;16.40;69.34
77799;BME280;66989;50.426;15.352;2023-07-08T01:33:58;98771.66;;;16.40;69.51
77799;BME280;66989;50.426;15.352;2023-07-08T01:36:24;98768.16;;;16.40;69.17
77799;BME280;66989;50.426;15.352;2023-07-08T01:38:50;98766.19;;;16.42;68.53
77799;BME280;66989;50.426;15.352;2023-07-08T01:41:16;98766.75;;;16.45;69.12
77799;BME280;66989;50.426;15.352;2023-07-08T01:43:42;98765.53;;;16.49;68.89
77799;BME280;66989;50.426;15.352;2023-07-08T01:46:26;98762.72;;;16.51;68.19
77799;BME280;66989;50.426;15.352;2023-07-08T01:48:54;98759.63;;;16.55;67.97
77799;BME280;66989;50.426;15.352;2023-07-08T01:51:21;98761.03;;;16.59;68.15
77799;BME280;66989;50.426;15.352;2023-07-08T01:53:47;98758.38;;;16.59;68.36
77799;BME280;66989;50.426;15.352;2023-07-08T01:56:13;98761.19;;;16.58;68.32
77799;BME280;66989;50.426;15.352;2023-07-08T01:58:39;98756.69;;;16.58;68.42
77799;BME280;66989;50.426;15.352;2023-07-08T02:01:05;98760.47;;;16.56;69.03
77799;BME280;66989;50.426;15.352;2023-07-08T02:03:30;98755.44;;;16.53;69.41
77799;BME280;66989;50.426;15.352;2023-07-08T02:05:56;98755.03;;;16.48;70.10
77799;BME280;66989;50.426;15.352;2023-07-08T02:08:22;98754.44;;;16.44;69.15
77799;BME280;66989;50.426;15.352;2023-07-08T02:10:53;98756.25;;;16.44;69.72
77799;BME280;66989;50.426;15.352;2023-07-08T02:13:19;98745.59;;;16.44;70.17
77799;BME280;66989;50.426;15.352;2023-07-08T02:15:44;98745.03;;;16.40;69.69
77799;BME280;66989;50.426;15.352;2023-07-08T02:18:10;98745.75;;;16.32;70.54
77799;BME280;66989;50.426;15.352;2023-07-08T02:20:35;98755.66;;;16.21;70.99
77799;BME280;66989;50.426;15.352;2023-07-08T02:23:00;98750.63;;;16.08;71.19
77799;BME280;66989;50.426;15.352;2023-07-08T02:25:26;98751.59;;;15.97;71.97
77799;BME280;66989;50.426;15.352;2023-07-08T02:27:52;98753.25;;;15.89;72.70
77799;BME280;66989;50.426;15.352;2023-07-08T02:30:20;98750.56;;;15.79;73.20
77799;BME280;66989;50.426;15.352;2023-07-08T02:32:45;98755.59;;;15.72;73.63
77799;BME280;66989;50.426;15.352;2023-07-08T02:35:13;98755.44;;;15.64;75.07
77799;BME280;66989;50.426;15.352;2023-07-08T02:37:39;98748.97;;;15.57;75.22
77799;BME280;66989;50.426;15.352;2023-07-08T02:40:05;98753.03;;;15.51;75.50
77799;BME280;66989;50.426;15.352;2023-07-08T02:42:31;98747.28;;;15.46;75.46
77799;BME280;66989;50.426;15.352;2023-07-08T02:44:56;98753.00;;;15.42;76.00
77799;BME280;66989;50.426;15.352;2023-07-08T02:47:22;98748.91;;;15.38;76.07
77799;BME280;66989;50.426;15.352;2023-07-08T02:49:47;98756.34;;;15.34;76.26
77799;BME280;66989;50.426;15.352;2023-07-08T02:52:12;98755.75;;;15.31;76.38
77799;BME280;66989;50.426;15.352;2023-07-08T02:54:38;98749.84;;;15.27;76.65
77799;BME280;66989;50.426;15.352;2023-07-08T02:57:03;98749.84;;;15.27;77.02
77799;BME280;66989;50.426;15.352;2023-07-08T02:59:29;98754.31;;;15.26;76.81
77799;BME280;66989;50.426;15.352;2023-07-08T03:01:54;98744.81;;;15.24;76.45
77799;BME280;66989;50.426;15.352;2023-07-08T03:04:20;98744.09;;;15.22;75.88
77799;BME280;66989;50.426;15.352;2023-07-08T03:06:49;98743.00;;;15.24;75.64
77799;BME280;66989;50.426;15.352;2023-07-08T03:09:15;98736.47;;;15.28;75.66
77799;BME280;66989;50.426;15.352;2023-07-08T03:11:40;98744.00;;;15.33;75.17
77799;BME280;66989;50.426;15.352;2023-07-08T03:14:06;98743.50;;;15.39;74.82
77799;BME280;66989;50.426;15.352;2023-07-08T03:16:32;98741.38;;;15.43;74.52
77799;BME280;66989;50.426;15.352;2023-07-08T03:18:57;98741.13;;;15.46;74.46
77799;BME280;66989;50.426;15.352;2023-07-08T03:21:23;98742.66;;;15.48;74.31
77799;BME280;66989;50.426;15.352;2023-07-08T03:23:49;98739.88;;;15.50;74.62
77799;BME280;66989;50.426;15.352;2023-07-08T03:26:19;98739.88;;;15.50;73.82
77799;BME280;66989;50.426;15.352;2023-07-08T03:28:46;98743.22;;;15.52;73.81
77799;BME280;66989;50.426;15.352;2023-07-08T03:31:11;98745.63;;;15.55;73.44
77799;BME280;66989;50.426;15.352;2023-07-08T03:33:37;98749.81;;;15.58;72.86
77799;BME280;66989;50.426;15.352;2023-07-08T03:36:04;98751.25;;;15.62;72.72
77799;BME280;66989;50.426;15.352;2023-07-08T03:38:30;98749.16;;;15.65;72.24
77799;BME280;66989;50.426;15.352;2023-07-08T03:40:55;98759.09;;;15.73;72.61
77799;BME280;66989;50.426;15.352;2023-07-08T03:43:20;98759.69;;;15.76;72.47
77799;BME280;66989;50.426;15.352;2023-07-08T03:45:46;98751.28;;;15.81;72.81
77799;BME280;66989;50.426;15.352;2023-07-08T03:48:12;98761.94;;;15.81;72.36
77799;BME280;66989;50.426;15.352;2023-07-08T03:50:37;98754.50;;;15.85;72.33
77799;BME280;66989;50.426;15.352;2023-07-08T03:53:03;98752.59;;;15.96;71.89
77799;BME280;66989;50.426;15.352;2023-07-08T03:55:29;98753.56;;;16.05;71.81
77799;BME280;66989;50.426;15.352;2023-07-08T03:57:54;98759.03;;;16.13;71.15
77799;BME280;66989;50.426;15.352;2023-07-08T04:00:20;98760.03;;;16.22;71.72
77799;BME280;66989;50.426;15.352;2023-07-08T04:02:46;98762.97;;;16.28;71.25
77799;BME280;66989;50.426;15.352;2023-07-08T04:05:22;98762.81;;;16.30;70.51
77799;BME280;66989;50.426;15.352;2023-07-08T04:07:48;98762.66;;;16.31;70.79
77799;BME280;66989;50.426;15.352;2023-07-08T04:10:15;98764.81;;;16.38;70.87
77799;BME280;66989;50.426;15.352;2023-07-08T04:12:42;98765.34;;;16.41;70.29
77799;BME280;66989;50.426;15.352;2023-07-08T04:15:09;98766.09;;;16.53;70.07
77799;BME280;66989;50.426;15.352;2023-07-08T04:17:45;98767.75;;;16.64;69.25
77799;BME280;66989;50.426;15.352;2023-07-08T04:20:13;98763.13;;;16.75;68.91
77799;BME280;66989;50.426;15.352;2023-07-08T04:22:39;98768.56;;;16.83;68.66
77799;BME280;66989;50.426;15.352;2023-07-08T04:25:05;98763.66;;;16.89;67.91
77799;BME280;66989;50.426;15.352;2023-07-08T04:27:31;98764.03;;;16.94;67.64
77799;BME280;66989;50.426;15.352;2023-07-08T04:29:56;98754.50;;;17.01;67.71
77799;BME280;66989;50.426;15.352;2023-07-08T04:32:22;98766.97;;;17.10;67.37
77799;BME280;66989;50.426;15.352;2023-07-08T04:34:51;98769.16;;;17.24;67.01
77799;BME280;66989;50.426;15.352;2023-07-08T04:37:17;98771.34;;;17.38;66.02
77799;BME280;66989;50.426;15.352;2023-07-08T04:39:44;98765.00;;;17.49;65.71
77799;BME280;66989;50.426;15.352;2023-07-08T04:42:10;98763.69;;;17.63;65.42
77799;BME280;66989;50.426;15.352;2023-07-08T04:44:38;98771.50;;;17.74;64.74
77799;BME280;66989;50.426;15.352;2023-07-08T04:47:04;98769.34;;;17.87;64.17
77799;BME280;66989;50.426;15.352;2023-07-08T04:49:29;98774.00;;;18.03;64.10
77799;BME280;66989;50.426;15.352;2023-07-08T04:51:57;98771.50;;;18.20;63.71
77799;BME280;66989;50.426;15.352;2023-07-08T04:54:24;98768.16;;;18.35;63.09
77799;BME280;66989;50.426;15.352;2023-07-08T04:56:50;98766.63;;;18.51;62.97
77799;BME280;66989;50.426;15.352;2023-07-08T04:59:18;98773.09;;;18.66;62.42
77799;BME280;66989;50.426;15.352;2023-07-08T05:01:44;98763.41;;;18.83;61.95
77799;BME280;66989;50.426;15.352;2023-07-08T05:04:12;98769.69;;;19.00;61.69
77799;BME280;66989;50.426;15.352;2023-07-08T05:06:38;98759.97;;;19.16;61.31
77799;BME280;66989;50.426;15.352;2023-07-08T05:09:04;98767.91;;;19.34;60.98
77799;BME280;66989;50.426;15.352;2023-07-08T05:11:30;98758.94;;;19.52;60.17
77799;BME280;66989;50.426;15.352;2023-07-08T05:13:56;98757.69;;;19.72;59.68
77799;BME280;66989;50.426;15.352;2023-07-08T05:16:21;98764.00;;;19.89;59.11
77799;BME280;66989;50.426;15.352;2023-07-08T05:18:47;98763.88;;;20.07;59.08
77799;BME280;66989;50.426;15.352;2023-07-08T05:21:13;98762.06;;;20.23;58.56
77799;BME280;66989;50.426;15.352;2023-07-08T05:23:39;98769.28;;;20.39;58.94
77799;BME280;66989;50.426;15.352;2023-07-08T05:26:06;98769.31;;;20.56;58.41
77799;BME280;66989;50.426;15.352;2023-07-08T05:28:33;98772.03;;;20.72;58.66
77799;BME280;66989;50.426;15.352;2023-07-08T05:30:59;98769.16;;;20.90;58.78
77799;BME280;66989;50.426;15.352;2023-07-08T05:33:26;98781.53;;;21.07;58.16
77799;BME280;66989;50.426;15.352;2023-07-08T05:35:55;98772.28;;;21.26;57.08
77799;BME280;66989;50.426;15.352;2023-07-08T05:38:21;98772.91;;;21.44;55.68
77799;BME280;66989;50.426;15.352;2023-07-08T05:40:53;98769.38;;;21.60;54.31
77799;BME280;66989;50.426;15.352;2023-07-08T05:43:19;98769.25;;;21.85;53.60
77799;BME280;66989;50.426;15.352;2023-07-08T05:45:47;98769.50;;;22.06;53.17
77799;BME280;66989;50.426;15.352;2023-07-08T05:48:13;98768.66;;;22.28;51.99
77799;BME280;66989;50.426;15.352;2023-07-08T05:51:21;98770.75;;;22.49;49.97
77799;BME280;66989;50.426;15.352;2023-07-08T05:53:28;98770.84;;;22.79;50.07
77799;BME280;66989;50.426;15.352;2023-07-08T05:55:54;98769.78;;;23.03;49.31
77799;BME280;66989;50.426;15.352;2023-07-08T05:58:20;98769.63;;;23.04;48.43
77799;BME280;66989;50.426;15.352;2023-07-08T06:00:45;98771.84;;;23.16;47.12
77799;BME280;66989;50.426;15.352;2023-07-08T06:03:11;98770.03;;;23.31;45.66
77799;BME280;66989;50.426;15.352;2023-07-08T06:05:37;98765.09;;;23.35;45.43
77799;BME280;66989;50.426;15.352;2023-07-08T06:08:04;98764.28;;;23.34;45.79
77799;BME280;66989;50.426;15.352;2023-07-08T06:10:41;98772.91;;;23.44;45.97
77799;BME280;66989;50.426;15.352;2023-07-08T06:13:07;98772.56;;;23.47;45.67
77799;BME280;66989;50.426;15.352;2023-07-08T06:15:34;98768.84;;;23.63;45.84
77799;BME280;66989;50.426;15.352;2023-07-08T06:17:59;98773.09;;;23.72;45.83
77799;BME280;66989;50.426;15.352;2023-07-08T06:20:29;98777.38;;;23.67;45.53
77799;BME280;66989;50.426;15.352;2023-07-08T06:22:55;98774.00;;;23.79;44.84
77799;BME280;66989;50.426;15.352;2023-07-08T06:25:20;98774.28;;;23.84;44.81
77799;BME280;66989;50.426;15.352;2023-07-08T06:27:45;98776.19;;;24.05;44.97
77799;BME280;66989;50.426;15.352;2023-07-08T06:30:11;98772.03;;;24.18;44.34
77799;BME280;66989;50.426;15.352;2023-07-08T06:32:36;98768.78;;;24.44;44.71
77799;BME280;66989;50.426;15.352;2023-07-08T06:35:02;98771.34;;;24.52;43.76
77799;BME280;66989;50.426;15.352;2023-07-08T06:37:27;98775.91;;;24.73;43.66
77799;BME280;66989;50.426;15.352;2023-07-08T06:39:53;98776.56;;;24.75;42.71
77799;BME280;66989;50.426;15.352;2023-07-08T06:42:18;98773.31;;;25.07;41.90
77799;BME280;66989;50.426;15.352;2023-07-08T06:44:44;98778.41;;;25.24;41.66
77799;BME280;66989;50.426;15.352;2023-07-08T06:47:20;98775.09;;;25.22;41.96
77799;BME280;66989;50.426;15.352;2023-07-08T06:49:48;98768.25;;;25.26;42.15
77799;BME280;66989;50.426;15.352;2023-07-08T06:52:15;98766.50;;;25.46;42.34
77799;BME280;66989;50.426;15.352;2023-07-08T06:54:41;98767.31;;;25.68;41.26
77799;BME280;66989;50.426;15.352;2023-07-08T06:57:06;98759.09;;;25.96;41.26
77799;BME280;66989;50.426;15.352;2023-07-08T06:59:33;98760.22;;;26.22;40.56
77799;BME280;66989;50.426;15.352;2023-07-08T07:01:58;98760.09;;;26.50;39.73
77799;BME280;66989;50.426;15.352;2023-07-08T07:04:23;98768.00;;;26.45;39.04
77799;BME280;66989;50.426;15.352;2023-07-08T07:06:49;98762.00;;;26.56;38.99
77799;BME280;66989;50.426;15.352;2023-07-08T07:09:14;98760.28;;;26.35;39.07
77799;BME280;66989;50.426;15.352;2023-07-08T07:11:39;98751.16;;;26.42;38.76
77799;BME280;66989;50.426;15.352;2023-07-08T07:14:05;98754.13;;;26.87;38.71
77799;BME280;66989;50.426;15.352;2023-07-08T07:16:30;98749.94;;;27.31;38.41
77799;BME280;66989;50.426;15.352;2023-07-08T07:18:56;98741.47;;;27.72;38.47
77799;BME280;66989;50.426;15.352;2023-07-08T07:21:21;98745.41;;;27.90;37.42
77799;BME280;66989;50.426;15.352;2023-07-08T07:23:47;98738.66;;;28.06;36.09
77799;BME280;66989;50.426;15.352;2023-07-08T07:26:13;98746.91;;;27.86;36.67
77799;BME280;66989;50.426;15.352;2023-07-08T07:28:39;98734.31;;;27.98;36.31
77799;BME280;66989;50.426;15.352;2023-07-08T07:31:09;98731.25;;;28.26;35.63
77799;BME280;66989;50.426;15.352;2023-07-08T07:33:36;98739.63;;;28.56;35.39
77799;BME280;66989;50.426;15.352;2023-07-08T07:36:01;98744.72;;;28.78;35.18
77799;BME280;66989;50.426;15.352;2023-07-08T07:38:27;98750.06;;;28.84;33.83
77799;BME280;66989;50.426;15.352;2023-07-08T07:40:55;98740.69;;;28.55;32.13
77799;BME280;66989;50.426;15.352;2023-07-08T07:43:21;98747.13;;;28.86;32.86
77799;BME280;66989;50.426;15.352;2023-07-08T07:45:53;98739.03;;;29.04;32.29
77799;BME280;66989;50.426;15.352;2023-07-08T07:48:21;98736.22;;;29.17;31.29
77799;BME280;66989;50.426;15.352;2023-07-08T07:50:48;98738.06;;;29.42;31.47
77799;BME280;66989;50.426;15.352;2023-07-08T07:53:16;98733.06;;;29.39;31.12
77799;BME280;66989;50.426;15.352;2023-07-08T07:55:41;98730.22;;;29.52;31.34
77799;BME280;66989;50.426;15.352;2023-07-08T07:58:07;98730.22;;;29.52;31.15
77799;BME280;66989;50.426;15.352;2023-07-08T08:00:33;98745.69;;;29.08;31.41
77799;BME280;66989;50.426;15.352;2023-07-08T08:02:59;98736.69;;;29.14;31.62
77799;BME280;66989;50.426;15.352;2023-07-08T08:05:24;98738.38;;;29.52;31.43
77799;BME280;66989;50.426;15.352;2023-07-08T08:07:50;98737.03;;;29.80;30.88
77799;BME280;66989;50.426;15.352;2023-07-08T08:10:15;98730.13;;;29.95;30.56
77799;BME280;66989;50.426;15.352;2023-07-08T08:12:42;98723.38;;;30.16;31.09
77799;BME280;66989;50.426;15.352;2023-07-08T08:15:08;98735.09;;;30.47;30.79
77799;BME280;66989;50.426;15.352;2023-07-08T08:17:33;98737.78;;;30.35;30.09
77799;BME280;66989;50.426;15.352;2023-07-08T08:19:58;98733.00;;;30.61;30.20
77799;BME280;66989;50.426;15.352;2023-07-08T08:22:24;98725.69;;;30.73;30.58
77799;BME280;66989;50.426;15.352;2023-07-08T08:24:49;98730.59;;;31.29;30.53
77799;BME280;66989;50.426;15.352;2023-07-08T08:27:15;98735.00;;;31.19;29.19
77799;BME280;66989;50.426;15.352;2023-07-08T08:29:41;98735.47;;;31.04;28.66
77799;BME280;66989;50.426;15.352;2023-07-08T08:32:06;98732.22;;;30.84;29.59
77799;BME280;66989;50.426;15.352;2023-07-08T08:34:33;98730.38;;;30.96;29.26
77799;BME280;66989;50.426;15.352;2023-07-08T08:36:59;98742.13;;;30.66;29.76
77799;BME280;66989;50.426;15.352;2023-07-08T08:39:24;98737.13;;;29.73;30.39
77799;BME280;66989;50.426;15.352;2023-07-08T08:41:52;98732.91;;;29.77;30.94
77799;BME280;66989;50.426;15.352;2023-07-08T08:44:28;98725.84;;;29.88;31.28
77799;BME280;66989;50.426;15.352;2023-07-08T08:47:25;98732.47;;;29.37;30.72
77799;BME280;66989;50.426;15.352;2023-07-08T08:50:03;98736.25;;;29.54;30.92
77799;BME280;66989;50.426;15.352;2023-07-08T08:52:35;98744.50;;;29.66;31.09
77799;BME280;66989;50.426;15.352;2023-07-08T08:55:01;98737.38;;;29.65;31.20
77799;BME280;66989;50.426;15.352;2023-07-08T09:00:46;98723.03;;;30.96;29.91
77799;BME280;66989;50.426;15.352;2023-07-08T09:03:31;98717.69;;;31.37;29.46
77799;BME280;66989;50.426;15.352;2023-07-08T09:05:59;98719.00;;;31.22;28.69
77799;BME280;66989;50.426;15.352;2023-07-08T09:08:36;98714.00;;;31.19;29.02
77799;BME280;66989;50.426;15.352;2023-07-08T09:11:15;98710.13;;;31.27;29.37
77799;BME280;66989;50.426;15.352;2023-07-08T09:13:43;98713.28;;;31.36;28.86
77799;BME280;66989;50.426;15.352;2023-07-08T09:18:42;98714.13;;;31.60;28.45
77799;BME280;66989;50.426;15.352;2023-07-08T09:21:19;98704.84;;;32.01;27.67
77799;BME280;66989;50.426;15.352;2023-07-08T09:23:47;98709.34;;;32.07;27.76
77799;BME280;66989;50.426;15.352;2023-07-08T09:26:19;98716.38;;;31.63;28.33
77799;BME280;66989;50.426;15.352;2023-07-08T09:28:46;98708.59;;;32.12;28.20
77799;BME280;66989;50.426;15.352;2023-07-08T09:31:25;98706.03;;;32.79;28.15
77799;BME280;66989;50.426;15.352;2023-07-08T09:34:13;98704.00;;;32.41;27.49
77799;BME280;66989;50.426;15.352;2023-07-08T09:36:43;98705.22;;;32.04;27.34
77799;BME280;66989;50.426;15.352;2023-07-08T09:39:17;98700.91;;;32.20;27.35
77799;BME280;66989;50.426;15.352;2023-07-08T09:41:45;98705.06;;;32.11;27.52
77799;BME280;66989;50.426;15.352;2023-07-08T09:46:41;98695.34;;;33.28;25.97
77799;BME280;66989;50.426;15.352;2023-07-08T09:51:46;98691.13;;;33.81;24.45
77799;BME280;66989;50.426;15.352;2023-07-08T09:54:14;98694.13;;;34.33;24.56
77799;BME280;66989;50.426;15.352;2023-07-08T09:56:43;98701.03;;;34.36;23.42
77799;BME280;66989;50.426;15.352;2023-07-08T09:59:12;98693.13;;;34.39;23.74
77799;BME280;66989;50.426;15.352;2023-07-08T10:01:40;98691.34;;;34.28;24.23
77799;BME280;66989;50.426;15.352;2023-07-08T10:04:06;98669.22;;;34.62;23.83
77799;BME280;66989;50.426;15.352;2023-07-08T10:06:34;98678.81;;;34.97;24.13
77799;BME280;66989;50.426;15.352;2023-07-08T10:09:09;98683.03;;;35.57;23.29
77799;BME280;66989;50.426;15.352;2023-07-08T10:11:46;98676.25;;;35.90;22.12
77799;BME280;66989;50.426;15.352;2023-07-08T10:14:39;98670.03;;;36.15;21.82
77799;BME280;66989;50.426;15.352;2023-07-08T10:17:13;98665.97;;;36.33;20.57
77799;BME280;66989;50.426;15.352;2023-07-08T10:19:40;98666.22;;;36.36;19.96
77799;BME280;66989;50.426;15.352;2023-07-08T10:22:26;98675.25;;;34.96;21.21
77799;BME280;66989;50.426;15.352;2023-07-08T10:39:24;98661.00;;;34.62;22.07
77799;BME280;66989;50.426;15.352;2023-07-08T10:42:31;98663.53;;;35.06;21.52
77799;BME280;66989;50.426;15.352;2023-07-08T10:45:11;98656.41;;;35.05;21.60
77799;BME280;66989;50.426;15.352;2023-07-08T10:48:00;98649.81;;;34.09;22.25
77799;BME280;66989;50.426;15.352;2023-07-08T10:51:03;98644.53;;;33.54;23.30
77799;BME280;66989;50.426;15.352;2023-07-08T10:53:48;98644.63;;;33.42;23.29
77799;BME280;66989;50.426;15.352;2023-07-08T10:56:20;98644.63;;;33.42;23.39
77799;BME280;66989;50.426;15.352;2023-07-08T10:59:19;98643.88;;;33.47;23.01
77799;BME280;66989;50.426;15.352;2023-07-08T11:02:00;98629.88;;;34.14;22.69
77799;BME280;66989;50.426;15.352;2023-07-08T11:04:37;98624.63;;;35.09;22.08
77799;BME280;66989;50.426;15.352;2023-07-08T11:12:31;98619.22;;;36.84;21.27
77799;BME280;66989;50.426;15.352;2023-07-08T11:17:49;98604.56;;;37.89;19.74
77799;BME280;66989;50.426;15.352;2023-07-08T11:20:23;98606.97;;;38.40;19.27
77799;BME280;66989;50.426;15.352;2023-07-08T11:23:00;98600.03;;;38.76;19.10
77799;BME280;66989;50.426;15.352;2023-07-08T11:25:28;98597.59;;;38.70;18.61
77799;BME280;66989;50.426;15.352;2023-07-08T11:27:59;98598.81;;;38.24;18.84
77799;BME280;66989;50.426;15.352;2023-07-08T11:30:28;98598.84;;;37.75;19.35
77799;BME280;66989;50.426;15.352;2023-07-08T11:33:00;98594.38;;;37.89;19.67
77799;BME280;66989;50.426;15.352;2023-07-08T11:35:43;98584.22;;;37.80;19.79
77799;BME280;66989;50.426;15.352;2023-07-08T11:38:13;98595.34;;;36.84;20.09
77799;BME280;66989;50.426;15.352;2023-07-08T11:41:34;98594.09;;;35.48;20.92
77799;BME280;66989;50.426;15.352;2023-07-08T11:46:20;98596.78;;;33.88;22.53
77799;BME280;66989;50.426;15.352;2023-07-08T11:48:48;98591.38;;;33.45;22.32
77799;BME280;66989;50.426;15.352;2023-07-08T11:51:35;98603.78;;;32.92;22.96
77799;BME280;66989;50.426;15.352;2023-07-08T11:54:19;98591.84;;;33.20;22.80
77799;BME280;66989;50.426;15.352;2023-07-08T11:57:17;98594.22;;;32.72;22.79
77799;BME280;66989;50.426;15.352;2023-07-08T11:59:43;98598.97;;;32.65;22.99
77799;BME280;66989;50.426;15.352;2023-07-08T12:02:18;98579.75;;;33.32;22.44
77799;BME280;66989;50.426;15.352;2023-07-08T12:07:50;98572.63;;;34.39;21.42
77799;BME280;66989;50.426;15.352;2023-07-08T12:12:58;98573.53;;;33.64;21.18
77799;BME280;66989;50.426;15.352;2023-07-08T12:15:26;98581.03;;;33.08;21.94
77799;BME280;66989;50.426;15.352;2023-07-08T12:17:56;98588.13;;;32.87;22.44
77799;BME280;66989;50.426;15.352;2023-07-08T12:20:36;98582.34;;;32.67;23.60
77799;BME280;66989;50.426;15.352;2023-07-08T12:23:10;98577.22;;;33.09;22.20
77799;BME280;66989;50.426;15.352;2023-07-08T12:25:36;98562.09;;;33.72;22.03
77799;BME280;66989;50.426;15.352;2023-07-08T12:28:02;98567.41;;;33.30;22.87
77799;BME280;66989;50.426;15.352;2023-07-08T12:30:29;98566.84;;;33.28;23.15
77799;BME280;66989;50.426;15.352;2023-07-08T12:32:56;98565.50;;;33.57;23.26
77799;BME280;66989;50.426;15.352;2023-07-08T12:35:27;98562.50;;;33.32;22.96
77799;BME280;66989;50.426;15.352;2023-07-08T12:37:57;98565.00;;;33.33;23.04
77799;BME280;66989;50.426;15.352;2023-07-08T12:40:23;98557.28;;;33.79;22.75
77799;BME280;66989;50.426;15.352;2023-07-08T12:42:50;98577.22;;;33.09;22.69
77799;BME280;66989;50.426;15.352;2023-07-08T12:45:19;98569.03;;;33.09;22.37
77799;BME280;66989;50.426;15.352;2023-07-08T12:47:45;98557.19;;;33.25;22.40
77799;BME280;66989;50.426;15.352;2023-07-08T12:50:11;98560.59;;;33.32;22.69
77799;BME280;66989;50.426;15.352;2023-07-08T12:52:36;98556.13;;;33.75;22.53
77799;BME280;66989;50.426;15.352;2023-07-08T12:55:02;98556.78;;;34.14;22.06
77799;BME280;66989;50.426;15.352;2023-07-08T12:57:27;98544.50;;;34.54;22.09
77799;BME280;66989;50.426;15.352;2023-07-08T12:59:53;98548.59;;;34.89;21.77
77799;BME280;66989;50.426;15.352;2023-07-08T13:02:21;98547.00;;;33.92;21.61
77799;BME280;66989;50.426;15.352;2023-07-08T13:04:59;98548.59;;;33.33;22.00
77799;BME280;66989;50.426;15.352;2023-07-08T13:07:37;98543.22;;;33.00;22.20
77799;BME280;66989;50.426;15.352;2023-07-08T13:10:07;98554.06;;;32.56;22.78
77799;BME280;66989;50.426;15.352;2023-07-08T13:12:40;98550.13;;;32.30;23.09
77799;BME280;66989;50.426;15.352;2023-07-08T13:15:12;98540.97;;;32.19;23.04
77799;BME280;66989;50.426;15.352;2023-07-08T13:17:39;98548.25;;;31.85;23.26
77799;BME280;66989;50.426;15.352;2023-07-08T13:20:12;98540.47;;;31.77;23.64
77799;BME280;66989;50.426;15.352;2023-07-08T13:22:39;98540.72;;;31.47;23.83
77799;BME280;66989;50.426;15.352;2023-07-08T13:25:13;98546.72;;;31.61;23.73
77799;BME280;66989;50.426;15.352;2023-07-08T13:27:39;98543.34;;;31.70;23.77
77799;BME280;66989;50.426;15.352;2023-07-08T13:30:26;98540.72;;;31.92;23.11
77799;BME280;66989;50.426;15.352;2023-07-08T13:32:58;98536.19;;;31.98;23.60
77799;BME280;66989;50.426;15.352;2023-07-08T13:35:37;98545.69;;;31.95;23.34
77799;BME280;66989;50.426;15.352;2023-07-08T13:38:03;98541.22;;;31.72;23.77
77799;BME280;66989;50.426;15.352;2023-07-08T13:40:29;98536.50;;;31.68;23.43
77799;BME280;66989;50.426;15.352;2023-07-08T13:42:55;98535.06;;;31.37;23.72
77799;BME280;66989;50.426;15.352;2023-07-08T13:45:26;98536.00;;;30.90;23.97
77799;BME280;66989;50.426;15.352;2023-07-08T13:48:11;98543.03;;;30.74;24.45